createdAt,value
2022-10-18T00:00:52.365Z,41
2022-10-18T00:03:25.173Z,40
2022-10-18T00:05:58.101Z,41
2022-10-18T00:08:29.619Z,47
2022-10-18T00:11:00.597Z,41
2022-10-18T00:13:36.030Z,39
2022-10-18T00:16:06.820Z,40
2022-10-18T00:18:38.154Z,41
2022-10-18T00:21:09.631Z,41
2022-10-18T00:23:40.599Z,46
2022-10-18T00:26:11.469Z,37
2022-10-18T00:28:44.413Z,37
2022-10-18T00:31:15.336Z,37
2022-10-18T00:33:52.464Z,44
2022-10-18T00:36:24.122Z,49
2022-10-18T00:38:55.321Z,42
2022-10-18T00:41:31.906Z,41
2022-10-18T00:44:08.962Z,36
2022-10-18T00:46:38.692Z,46
2022-10-18T00:49:09.869Z,39
2022-10-18T00:51:40.797Z,40
2022-10-18T00:54:11.439Z,45
2022-10-18T00:56:42.774Z,40
2022-10-18T00:59:13.414Z,40
2022-10-18T01:01:44.731Z,40
2022-10-18T01:04:15.613Z,41
2022-10-18T01:06:47.883Z,43
2022-10-18T01:09:19.716Z,43
2022-10-18T01:11:51.307Z,43
2022-10-18T01:14:22.588Z,40
2022-10-18T01:16:52.324Z,44
2022-10-18T01:19:23.489Z,39
2022-10-18T01:21:55.302Z,36
2022-10-18T01:24:26.958Z,38
2022-10-18T01:26:56.812Z,41
2022-10-18T01:29:28.053Z,39
2022-10-18T01:32:01.436Z,41
2022-10-18T01:34:32.979Z,36
2022-10-18T01:37:03.906Z,38
2022-10-18T01:39:35.565Z,40
2022-10-18T01:42:06.401Z,44
2022-10-18T01:44:37.172Z,37
2022-10-18T01:47:08.323Z,38
2022-10-18T01:49:39.830Z,38
2022-10-18T01:52:11.815Z,38
2022-10-18T01:54:43.558Z,41
2022-10-18T01:57:14.286Z,34
2022-10-18T01:59:45.510Z,37
2022-10-18T02:02:16.765Z,44
2022-10-18T02:04:47.399Z,39
2022-10-18T02:09:56.784Z,46
2022-10-18T02:12:28.341Z,32
2022-10-18T02:14:59.114Z,35
2022-10-18T02:17:30.170Z,32
2022-10-18T02:20:01.318Z,34
2022-10-18T02:22:36.232Z,32
2022-10-18T02:25:07.766Z,36
2022-10-18T02:27:38.869Z,30
2022-10-18T02:30:08.294Z,42
2022-10-18T02:32:39.290Z,28
2022-10-18T02:35:10.219Z,31
2022-10-18T02:37:41.293Z,35
2022-10-18T02:40:13.036Z,32
2022-10-18T02:42:44.854Z,32
2022-10-18T02:45:22.838Z,36
2022-10-18T02:47:54.119Z,34
2022-10-18T02:50:27.927Z,30
2022-10-18T02:52:59.280Z,36
2022-10-18T02:55:30.336Z,35
2022-10-18T02:58:01.451Z,41
2022-10-18T03:00:32.454Z,35
2022-10-18T03:03:03.105Z,37
2022-10-18T03:05:34.412Z,41
2022-10-18T03:08:06.067Z,39
2022-10-18T03:10:39.025Z,36
2022-10-18T03:13:10.448Z,34
2022-10-18T03:15:43.241Z,36
2022-10-18T03:18:15.023Z,36
2022-10-18T03:20:47.086Z,36
2022-10-18T03:23:18.248Z,37
2022-10-18T03:25:51.059Z,29
2022-10-18T03:28:21.993Z,33
2022-10-18T03:30:53.366Z,28
2022-10-18T03:33:24.235Z,35
2022-10-18T03:35:56.401Z,39
2022-10-18T03:38:33.306Z,33
2022-10-18T03:41:05.291Z,36
2022-10-18T03:43:36.568Z,29
2022-10-18T03:46:07.582Z,33
2022-10-18T03:48:38.876Z,29
2022-10-18T03:51:09.777Z,29
2022-10-18T03:53:41.488Z,36
2022-10-18T03:56:22.517Z,28
2022-10-18T03:58:53.975Z,29
2022-10-18T04:01:25.059Z,36
2022-10-18T04:03:56.259Z,29
2022-10-18T04:06:27.400Z,32
2022-10-18T04:09:00.075Z,31
2022-10-18T04:11:30.774Z,28
2022-10-18T04:14:01.565Z,30
2022-10-18T04:16:32.703Z,32
2022-10-18T04:19:04.040Z,28
2022-10-18T04:21:34.940Z,29
2022-10-18T04:24:06.367Z,31
2022-10-18T04:26:36.854Z,31
2022-10-18T04:29:07.988Z,32
2022-10-18T04:31:39.894Z,32
2022-10-18T04:34:11.086Z,28
2022-10-18T04:36:42.292Z,35
2022-10-18T04:39:13.526Z,31
2022-10-18T04:41:45.142Z,28
2022-10-18T04:44:16.228Z,24
2022-10-18T04:46:46.722Z,28
2022-10-18T04:49:17.094Z,25
2022-10-18T04:51:48.931Z,29
2022-10-18T04:54:21.832Z,29
2022-10-18T04:56:52.830Z,27
2022-10-18T04:59:23.613Z,25
2022-10-18T05:04:34.346Z,28
2022-10-18T05:07:05.489Z,27
2022-10-18T05:09:36.734Z,32
2022-10-18T05:12:11.020Z,28
2022-10-18T05:14:43.876Z,35
2022-10-18T05:17:15.760Z,33
2022-10-18T05:19:45.023Z,40
2022-10-18T05:22:16.720Z,30
2022-10-18T05:24:47.362Z,29
2022-10-18T05:27:18.105Z,31
2022-10-18T05:29:49.617Z,31
2022-10-18T05:32:22.626Z,36
2022-10-18T05:34:51.838Z,36
2022-10-18T05:37:26.109Z,33
2022-10-18T05:39:53.824Z,31
2022-10-18T05:42:25.481Z,31
2022-10-18T05:44:58.052Z,28
2022-10-18T05:47:29.252Z,32
2022-10-18T05:50:03.478Z,27
2022-10-18T05:52:34.386Z,28
2022-10-18T05:55:07.846Z,32
2022-10-18T05:57:39.142Z,31
2022-10-18T06:00:12.150Z,37
2022-10-18T06:02:44.102Z,38
2022-10-18T06:05:14.654Z,37
2022-10-18T06:07:46.173Z,39
2022-10-18T06:10:16.818Z,34
2022-10-18T06:12:47.346Z,32
2022-10-18T06:15:17.874Z,30
2022-10-18T06:17:49.059Z,37
2022-10-18T06:20:19.920Z,26
2022-10-18T06:22:50.902Z,48
2022-10-18T06:25:23.537Z,28
2022-10-18T06:27:54.783Z,35
2022-10-18T06:30:25.822Z,30
2022-10-18T06:32:56.874Z,31
2022-10-18T06:35:28.692Z,27
2022-10-18T06:38:00.103Z,27
2022-10-18T06:40:30.980Z,30
2022-10-18T06:43:16.469Z,29
2022-10-18T06:45:32.692Z,25
2022-10-18T06:48:03.341Z,31
2022-10-18T06:50:40.449Z,26
2022-10-18T06:53:10.833Z,29
2022-10-18T06:55:41.773Z,34
2022-10-18T06:58:13.256Z,35
2022-10-18T07:03:21.829Z,48
2022-10-18T07:05:52.413Z,40
2022-10-18T07:08:23.066Z,31
2022-10-18T07:10:53.721Z,24
2022-10-18T07:13:38.588Z,34
2022-10-18T07:15:53.087Z,48
2022-10-18T07:18:23.967Z,44
2022-10-18T07:20:59.915Z,30
2022-10-18T07:23:31.108Z,28
2022-10-18T07:26:00.483Z,42
2022-10-18T07:28:32.760Z,36
2022-10-18T07:31:05.954Z,23
2022-10-18T07:33:35.197Z,32
2022-10-18T07:36:05.669Z,30
2022-10-18T07:38:35.946Z,40
2022-10-18T07:41:09.132Z,34
2022-10-18T07:43:39.805Z,55
2022-10-18T07:46:10.805Z,25
2022-10-18T07:48:41.264Z,32
2022-10-18T07:51:13.845Z,24
2022-10-18T07:53:45.117Z,24
2022-10-18T07:56:15.797Z,22
2022-10-18T07:58:48.198Z,24
2022-10-18T08:01:18.946Z,28
2022-10-18T08:03:49.372Z,23
2022-10-18T08:06:19.901Z,27
2022-10-18T08:08:50.303Z,25
2022-10-18T08:11:21.986Z,44
2022-10-18T08:13:53.482Z,29
2022-10-18T08:16:24.178Z,32
2022-10-18T08:18:54.475Z,28
2022-10-18T08:21:25.236Z,27
2022-10-18T08:23:55.828Z,31
2022-10-18T08:26:27.363Z,36
2022-10-18T08:29:17.848Z,31
2022-10-18T08:31:34.412Z,24
2022-10-18T08:34:05.038Z,27
2022-10-18T08:36:36.193Z,20
2022-10-18T08:39:06.631Z,23
2022-10-18T08:41:37.110Z,21
2022-10-18T08:44:07.737Z,25
2022-10-18T08:46:38.703Z,21
2022-10-18T08:49:09.403Z,17
2022-10-18T08:51:40.125Z,21
2022-10-18T08:54:16.724Z,20
2022-10-18T08:56:47.783Z,15
2022-10-18T08:59:23.256Z,25
2022-10-18T09:01:51.425Z,17
2022-10-18T09:04:22.025Z,19
2022-10-18T09:06:52.796Z,21
2022-10-18T09:09:23.521Z,21
2022-10-18T09:11:56.850Z,15
2022-10-18T09:14:27.631Z,17
2022-10-18T09:16:59.042Z,16
2022-10-18T09:19:29.581Z,16
2022-10-18T09:22:00.227Z,16
2022-10-18T09:24:30.654Z,15
2022-10-18T09:27:01.573Z,15
2022-10-18T09:29:32.507Z,19
2022-10-18T09:32:05.354Z,12
2022-10-18T09:34:36.185Z,16
2022-10-18T09:37:07.339Z,17
2022-10-18T09:39:39.246Z,16
2022-10-18T09:42:10.005Z,19
2022-10-18T09:44:41.761Z,19
2022-10-18T09:47:16.793Z,16
2022-10-18T09:49:46.722Z,15
2022-10-18T09:52:19.571Z,15
2022-10-18T09:54:50.051Z,19
2022-10-18T09:57:19.142Z,13
2022-10-18T09:59:52.126Z,12
2022-10-18T10:02:21.151Z,17
2022-10-18T10:04:52.569Z,16
2022-10-18T10:07:22.323Z,17
2022-10-18T10:09:53.035Z,12
2022-10-18T10:12:23.700Z,18
2022-10-18T10:14:54.601Z,17
2022-10-18T10:17:25.312Z,19
2022-10-18T10:20:01.223Z,17
2022-10-18T10:22:31.184Z,23
2022-10-18T10:25:02.150Z,20
2022-10-18T10:27:34.053Z,15
2022-10-18T10:30:06.962Z,16
2022-10-18T10:32:34.876Z,17
2022-10-18T10:35:05.780Z,19
2022-10-18T10:37:37.088Z,23
2022-10-18T10:40:27.738Z,20
2022-10-18T10:42:39.794Z,16
2022-10-18T10:45:08.970Z,13
2022-10-18T10:47:39.402Z,19
2022-10-18T10:50:08.690Z,21
2022-10-18T10:52:40.015Z,20
2022-10-18T10:55:30.710Z,16
2022-10-18T10:57:41.590Z,17
2022-10-18T11:00:14.103Z,20
2022-10-18T11:02:51.166Z,17
2022-10-18T11:05:15.100Z,13
2022-10-18T11:07:45.748Z,21
2022-10-18T11:10:16.135Z,17
2022-10-18T11:12:46.711Z,18
2022-10-18T11:15:17.486Z,19
2022-10-18T11:17:46.474Z,23
2022-10-18T11:20:16.782Z,20
2022-10-18T11:22:53.707Z,19
2022-10-18T11:25:24.260Z,16
2022-10-18T11:27:54.488Z,19
2022-10-18T11:30:24.865Z,20
2022-10-18T11:32:55.624Z,19
2022-10-18T11:35:27.253Z,16
2022-10-18T11:37:56.428Z,19
2022-10-18T11:40:27.026Z,19
2022-10-18T11:42:58.461Z,23
2022-10-18T11:47:59.889Z,17
2022-10-18T11:50:30.549Z,20
2022-10-18T11:53:01.005Z,24
2022-10-18T11:55:33.023Z,26
2022-10-18T11:58:04.490Z,25
2022-10-18T12:00:35.112Z,19
2022-10-18T12:03:05.758Z,23
2022-10-18T12:05:36.935Z,20
2022-10-18T12:08:07.693Z,21
2022-10-18T12:10:45.909Z,24
2022-10-18T12:13:09.083Z,20
2022-10-18T12:15:39.608Z,21
2022-10-18T12:18:11.311Z,19
2022-10-18T12:20:44.455Z,20
2022-10-18T12:23:16.440Z,19
2022-10-18T12:25:58.125Z,19
2022-10-18T12:28:29.795Z,20
2022-10-18T12:31:00.510Z,24
2022-10-18T12:33:31.993Z,22
2022-10-18T12:36:02.624Z,23
2022-10-18T12:38:33.582Z,23
2022-10-18T12:41:05.398Z,16
2022-10-18T12:43:36.195Z,19
2022-10-18T12:46:12.355Z,18
2022-10-18T12:48:40.001Z,16
2022-10-18T12:51:10.242Z,17
2022-10-18T12:53:45.758Z,25
2022-10-18T12:56:21.878Z,19
2022-10-18T12:58:52.675Z,16
2022-10-18T13:01:23.269Z,23
2022-10-18T13:03:55.051Z,16
2022-10-18T13:06:26.005Z,19
2022-10-18T13:08:56.651Z,31
2022-10-18T13:11:32.132Z,17
2022-10-18T13:14:07.912Z,19
2022-10-18T13:16:38.486Z,16
2022-10-18T13:19:09.281Z,17
2022-10-18T13:21:41.139Z,22
2022-10-18T13:24:12.143Z,17
2022-10-18T13:26:42.498Z,20
2022-10-18T13:29:13.468Z,16
2022-10-18T13:31:46.984Z,16
2022-10-18T13:34:17.120Z,20
2022-10-18T13:36:47.693Z,24
2022-10-18T13:39:18.114Z,19
2022-10-18T13:41:52.561Z,20
2022-10-18T13:44:23.974Z,19
2022-10-18T13:46:58.555Z,20
2022-10-18T13:49:30.157Z,23
2022-10-18T13:52:01.073Z,20
2022-10-18T13:54:32.505Z,23
2022-10-18T13:57:04.152Z,20
2022-10-18T14:02:05.634Z,22
2022-10-18T14:04:36.114Z,16
2022-10-18T14:07:05.208Z,18
2022-10-18T14:09:45.052Z,25
2022-10-18T14:12:14.688Z,15
2022-10-18T14:14:46.115Z,12
2022-10-18T14:17:17.986Z,17
2022-10-18T14:22:23.007Z,15
2022-10-18T14:24:53.566Z,17
2022-10-18T14:27:26.928Z,16
2022-10-18T14:29:58.975Z,15
2022-10-18T14:32:30.083Z,15
2022-10-18T14:35:27.542Z,15
2022-10-18T14:37:31.885Z,17
2022-10-18T14:40:03.553Z,16
2022-10-18T14:42:35.292Z,15
2022-10-18T14:45:06.670Z,12
2022-10-18T14:47:37.630Z,13
2022-10-18T14:50:19.822Z,14
2022-10-18T14:53:04.181Z,15
2022-10-18T14:55:41.931Z,21
2022-10-18T14:58:13.458Z,21
2022-10-18T15:00:51.047Z,21
2022-10-18T15:06:00.325Z,16
2022-10-18T15:08:37.455Z,16
2022-10-18T15:11:13.303Z,18
2022-10-18T15:13:43.457Z,21
2022-10-18T15:16:14.833Z,16
2022-10-18T15:18:47.693Z,21
2022-10-18T15:21:18.889Z,17
2022-10-18T15:23:50.556Z,20
2022-10-18T15:26:28.154Z,24
2022-10-18T15:29:01.418Z,16
2022-10-18T15:31:31.213Z,24
2022-10-18T15:34:00.686Z,21
2022-10-18T15:36:30.339Z,23
2022-10-18T15:39:01.529Z,21
2022-10-18T15:41:32.607Z,27
2022-10-18T15:44:04.369Z,20
2022-10-18T15:46:39.958Z,21
2022-10-18T15:49:16.367Z,23
2022-10-18T15:51:48.016Z,25
2022-10-18T15:54:19.444Z,24
2022-10-18T15:56:51.205Z,24
2022-10-18T15:59:25.341Z,20
2022-10-18T16:01:56.412Z,24
2022-10-18T16:04:28.557Z,28
2022-10-18T16:07:05.459Z,24
2022-10-18T16:09:40.648Z,30
2022-10-18T16:12:11.806Z,37
2022-10-18T16:14:43.350Z,72
2022-10-18T16:17:14.694Z,42
2022-10-18T16:19:46.087Z,49
2022-10-18T16:22:17.271Z,44
2022-10-18T16:24:48.764Z,41
2022-10-18T16:27:20.561Z,45
2022-10-18T16:29:52.203Z,45
2022-10-18T16:32:25.604Z,41
2022-10-18T16:34:58.243Z,42
2022-10-18T16:37:29.504Z,40
2022-10-18T16:40:02.975Z,48
2022-10-18T16:42:34.993Z,48
2022-10-18T16:45:07.049Z,48
2022-10-18T16:47:39.130Z,45
2022-10-18T16:50:10.440Z,44
2022-10-18T16:52:41.290Z,48
2022-10-18T16:55:13.452Z,48
2022-10-18T17:00:23.182Z,53
2022-10-18T17:02:56.626Z,48
2022-10-18T17:05:28.038Z,56
2022-10-18T17:10:41.210Z,62
2022-10-18T17:13:13.133Z,57
2022-10-18T17:15:44.674Z,58
2022-10-18T17:18:17.941Z,64
2022-10-18T17:20:48.965Z,68
2022-10-18T17:23:20.186Z,64
2022-10-18T17:25:57.905Z,74
2022-10-18T17:28:23.419Z,65
2022-10-18T17:30:56.684Z,67
2022-10-18T17:33:28.269Z,68
2022-10-18T17:35:59.722Z,60
2022-10-18T17:38:31.373Z,64
2022-10-18T17:41:02.689Z,67
2022-10-18T17:43:35.907Z,58
2022-10-18T17:46:07.669Z,61
2022-10-18T17:51:14.181Z,69
2022-10-18T17:53:55.337Z,68
2022-10-18T17:56:34.085Z,71
2022-10-18T17:59:05.056Z,65
2022-10-18T18:01:36.456Z,65
2022-10-18T18:04:07.626Z,71
2022-10-18T18:06:38.733Z,73
2022-10-18T18:09:10.114Z,76
2022-10-18T18:11:42.075Z,68
2022-10-18T18:14:13.769Z,70
2022-10-18T18:16:46.650Z,68
2022-10-18T18:19:17.589Z,74
2022-10-18T18:21:48.924Z,77
2022-10-18T18:24:20.432Z,83
2022-10-18T18:26:51.590Z,76
2022-10-18T18:29:22.561Z,75
2022-10-18T18:31:56.018Z,78
2022-10-18T18:34:27.678Z,72
2022-10-18T18:36:59.641Z,78
2022-10-18T18:39:31.819Z,81
2022-10-18T18:42:03.066Z,72
2022-10-18T18:44:35.944Z,75
2022-10-18T18:47:13.231Z,72
2022-10-18T18:49:46.957Z,76
2022-10-18T18:52:18.086Z,76
2022-10-18T18:54:50.470Z,75
2022-10-18T18:57:23.936Z,79
2022-10-18T18:59:57.200Z,80
2022-10-18T19:02:29.915Z,73
2022-10-18T19:05:01.088Z,69
2022-10-18T19:07:32.819Z,73
2022-10-18T19:10:02.306Z,77
2022-10-18T19:12:33.954Z,64
2022-10-18T19:15:05.605Z,70
2022-10-18T19:17:38.576Z,74
2022-10-18T19:20:09.923Z,73
2022-10-18T19:22:40.789Z,75
2022-10-18T19:25:11.498Z,70
2022-10-18T19:27:52.561Z,77
2022-10-18T19:30:25.350Z,70
2022-10-18T19:32:59.789Z,72
2022-10-18T19:35:29.488Z,80
2022-10-18T19:38:01.991Z,74
2022-10-18T19:40:34.989Z,72
2022-10-18T19:43:04.654Z,83
2022-10-18T19:45:37.043Z,97
2022-10-18T19:48:12.422Z,77
2022-10-18T19:50:41.011Z,76
2022-10-18T19:53:12.476Z,85
2022-10-18T19:55:44.092Z,72
2022-10-18T19:58:15.737Z,72
2022-10-18T20:00:52.296Z,74
2022-10-18T20:03:23.570Z,68
2022-10-18T20:05:57.224Z,71
2022-10-18T20:08:33.654Z,70
2022-10-18T20:11:10.877Z,65
2022-10-18T20:13:42.644Z,61
2022-10-18T20:16:14.550Z,67
2022-10-18T20:18:45.900Z,68
2022-10-18T20:21:16.458Z,64
2022-10-18T20:23:47.815Z,69
2022-10-18T20:26:20.399Z,63
2022-10-18T20:28:51.068Z,66
2022-10-18T20:31:24.177Z,62
2022-10-18T20:33:56.429Z,61
2022-10-18T20:36:28.263Z,69
2022-10-18T20:38:59.663Z,68
2022-10-18T20:41:31.332Z,68
2022-10-18T20:44:06.292Z,60
2022-10-18T20:46:38.521Z,64
2022-10-18T20:49:10.028Z,63
2022-10-18T20:51:41.325Z,60
2022-10-18T20:54:14.191Z,63
2022-10-18T20:56:45.762Z,65
2022-10-18T20:59:16.871Z,55
2022-10-18T21:01:49.835Z,57
2022-10-18T21:04:22.266Z,63
2022-10-18T21:06:53.813Z,58
2022-10-18T21:09:24.174Z,64
2022-10-18T21:11:56.201Z,68
2022-10-18T21:14:27.340Z,70
2022-10-18T21:16:59.613Z,71
2022-10-18T21:19:32.817Z,69
2022-10-18T21:22:04.783Z,72
2022-10-18T21:24:35.979Z,75
2022-10-18T21:27:07.042Z,66
2022-10-18T21:29:38.832Z,64
2022-10-18T21:32:08.933Z,67
2022-10-18T21:34:40.559Z,64
2022-10-18T21:37:13.070Z,61
2022-10-18T21:39:44.194Z,70
2022-10-18T21:42:17.957Z,77
2022-10-18T21:44:50.118Z,72
2022-10-18T21:47:22.403Z,72
2022-10-18T21:49:54.036Z,77
2022-10-18T21:52:28.365Z,72
2022-10-18T21:54:59.485Z,68
2022-10-18T21:57:32.041Z,68
2022-10-18T22:00:09.164Z,76
2022-10-18T22:02:40.551Z,76
2022-10-18T22:05:13.517Z,67
2022-10-18T22:07:44.851Z,73
2022-10-18T22:10:16.695Z,70
2022-10-18T22:12:48.100Z,72
2022-10-18T22:15:20.021Z,73
2022-10-18T22:17:50.168Z,72
2022-10-18T22:20:21.242Z,72
2022-10-18T22:22:51.648Z,68
2022-10-18T22:25:22.413Z,68
2022-10-18T22:27:52.834Z,63
2022-10-18T22:30:25.439Z,62
2022-10-18T22:32:56.162Z,65
2022-10-18T22:35:26.861Z,68
2022-10-18T22:37:58.282Z,65
2022-10-18T22:40:31.359Z,68
2022-10-18T22:43:01.899Z,65
2022-10-18T22:45:32.441Z,66
2022-10-18T22:48:03.877Z,76
2022-10-18T22:50:34.674Z,72
2022-10-18T22:53:05.399Z,72
2022-10-18T22:55:36.258Z,68
2022-10-18T22:58:13.319Z,73
2022-10-18T23:00:44.355Z,65
2022-10-18T23:03:14.763Z,78
2022-10-18T23:05:46.074Z,72
2022-10-18T23:08:18.764Z,70
2022-10-18T23:10:49.980Z,68
2022-10-18T23:13:20.749Z,73
2022-10-18T23:15:51.689Z,78
2022-10-18T23:18:22.606Z,72
2022-10-18T23:20:55.186Z,72
2022-10-18T23:23:25.795Z,76
2022-10-18T23:26:01.093Z,73
2022-10-18T23:28:32.952Z,72
2022-10-18T23:31:03.867Z,76
2022-10-18T23:33:34.087Z,71
2022-10-18T23:36:08.006Z,71
2022-10-18T23:38:37.856Z,68
2022-10-18T23:41:09.776Z,66
2022-10-18T23:43:40.652Z,61
2022-10-18T23:46:11.339Z,64
2022-10-18T23:48:46.459Z,66
2022-10-18T23:51:17.213Z,65
2022-10-18T23:53:48.363Z,59
2022-10-18T23:56:19.585Z,65
2022-10-18T23:58:50.693Z,67
